createdAt,value
2022-08-04T00:00:45.966Z,22.72
2022-08-04T00:03:28.054Z,22.71
2022-08-04T00:06:04.524Z,22.70
2022-08-04T00:08:49.511Z,22.70
2022-08-04T00:11:21.604Z,22.69
2022-08-04T00:14:03.617Z,22.69
2022-08-04T00:16:38.568Z,22.67
2022-08-04T00:19:21.826Z,22.67
2022-08-04T00:21:52.673Z,22.68
2022-08-04T00:24:20.133Z,22.68
2022-08-04T00:26:47.590Z,22.67
2022-08-04T00:29:14.740Z,22.65
2022-08-04T00:31:56.443Z,22.63
2022-08-04T00:34:26.351Z,22.59
2022-08-04T00:36:54.530Z,22.58
2022-08-04T00:39:22.327Z,22.58
2022-08-04T00:42:13.720Z,22.58
2022-08-04T00:44:40.561Z,22.58
2022-08-04T00:47:29.549Z,22.57
2022-08-04T00:50:36.406Z,22.56
2022-08-04T00:53:07.653Z,22.53
2022-08-04T00:56:12.384Z,22.52
2022-08-04T00:59:27.870Z,22.50
2022-08-04T01:02:22.673Z,22.51
2022-08-04T01:04:50.983Z,22.52
2022-08-04T01:07:48.859Z,22.52
2022-08-04T01:10:40.969Z,22.51
2022-08-04T01:13:22.358Z,22.48
2022-08-04T01:15:59.357Z,22.44
2022-08-04T01:18:52.422Z,22.43
2022-08-04T01:21:34.919Z,22.42
2022-08-04T01:24:31.662Z,22.43
2022-08-04T01:27:43.560Z,22.43
2022-08-04T01:30:10.512Z,22.41
2022-08-04T01:32:39.075Z,22.39
2022-08-04T01:35:09.867Z,22.37
2022-08-04T01:38:01.762Z,22.35
2022-08-04T01:40:45.507Z,22.34
2022-08-04T01:43:14.400Z,22.35
2022-08-04T01:45:41.865Z,22.34
2022-08-04T01:48:09.535Z,22.36
2022-08-04T01:50:37.294Z,22.39
2022-08-04T01:53:04.548Z,22.34
2022-08-04T01:55:54.252Z,22.33
2022-08-04T01:58:19.941Z,22.29
2022-08-04T02:01:08.866Z,22.24
2022-08-04T02:04:21.080Z,22.23
2022-08-04T02:06:41.001Z,22.23
2022-08-04T02:09:21.468Z,22.24
2022-08-04T02:11:59.063Z,22.27
2022-08-04T02:14:43.111Z,22.32
2022-08-04T02:17:15.107Z,22.38
2022-08-04T02:20:02.812Z,22.39
2022-08-04T02:22:30.470Z,22.39
2022-08-04T02:25:09.098Z,22.39
2022-08-04T02:27:59.765Z,22.40
2022-08-04T02:30:56.956Z,22.33
2022-08-04T02:33:27.688Z,22.26
2022-08-04T02:35:57.666Z,22.28
2022-08-04T02:38:55.425Z,22.35
2022-08-04T02:41:25.201Z,22.35
2022-08-04T02:43:52.899Z,22.25
2022-08-04T02:46:20.877Z,22.21
2022-08-04T02:48:48.983Z,22.20
2022-08-04T02:51:17.181Z,22.22
2022-08-04T02:53:44.331Z,22.27
2022-08-04T02:56:11.279Z,22.27
2022-08-04T02:58:38.169Z,22.22
2022-08-04T03:01:05.255Z,22.18
2022-08-04T03:03:40.580Z,22.18
2022-08-04T03:06:11.584Z,22.20
2022-08-04T03:09:23.482Z,22.20
2022-08-04T03:12:14.700Z,22.21
2022-08-04T03:15:00.494Z,22.21
2022-08-04T03:17:53.633Z,22.22
2022-08-04T03:20:45.632Z,22.26
2022-08-04T03:23:45.422Z,22.28
2022-08-04T03:26:34.279Z,22.34
2022-08-04T03:29:11.272Z,22.36
2022-08-04T03:32:09.138Z,22.38
2022-08-04T03:35:13.683Z,22.38
2022-08-04T03:38:08.778Z,22.39
2022-08-04T03:40:50.581Z,22.40
2022-08-04T03:43:57.083Z,22.43
2022-08-04T03:46:17.349Z,22.48
2022-08-04T03:49:21.598Z,22.53
2022-08-04T03:52:26.093Z,22.56
2022-08-04T03:55:11.781Z,22.59
2022-08-04T03:57:48.596Z,22.62
2022-08-04T04:00:19.435Z,22.64
2022-08-04T04:03:08.367Z,22.68
2022-08-04T04:05:43.151Z,22.71
2022-08-04T04:08:40.664Z,22.75
2022-08-04T04:11:55.449Z,22.79
2022-08-04T04:14:50.350Z,22.83
2022-08-04T04:17:45.249Z,22.90
2022-08-04T04:20:31.036Z,22.96
2022-08-04T04:23:23.170Z,23.02
2022-08-04T04:26:02.405Z,23.08
2022-08-04T04:28:46.089Z,23.12
2022-08-04T04:31:33.788Z,23.17
2022-08-04T04:34:45.996Z,23.22
2022-08-04T04:37:18.822Z,23.28
2022-08-04T04:40:03.254Z,23.34
2022-08-04T04:42:30.690Z,23.38
2022-08-04T04:45:28.764Z,23.41
2022-08-04T04:48:08.911Z,23.43
2022-08-04T04:51:18.270Z,23.45
2022-08-04T04:54:09.391Z,23.49
2022-08-04T04:56:36.339Z,23.54
2022-08-04T04:59:04.229Z,23.59
2022-08-04T05:02:01.566Z,23.65
2022-08-04T05:04:54.931Z,23.74
2022-08-04T05:07:28.151Z,23.82
2022-08-04T05:10:12.584Z,23.87
2022-08-04T05:14:31.845Z,23.93
2022-08-04T05:15:32.588Z,24.04
2022-08-04T05:17:59.588Z,24.12
2022-08-04T05:20:35.939Z,24.23
2022-08-04T05:23:16.870Z,24.37
2022-08-04T05:25:58.785Z,24.41
2022-08-04T05:28:45.571Z,24.49
2022-08-04T05:31:14.456Z,24.59
2022-08-04T05:33:46.434Z,24.68
2022-08-04T05:36:29.432Z,24.71
2022-08-04T05:39:04.353Z,24.78
2022-08-04T05:41:32.406Z,24.84
2022-08-04T05:44:12.107Z,24.89
2022-08-04T05:46:39.156Z,24.90
2022-08-04T05:49:07.082Z,24.88
2022-08-04T05:51:34.791Z,24.86
2022-08-04T05:54:01.843Z,24.88
2022-08-04T05:56:29.404Z,24.89
2022-08-04T05:58:56.400Z,24.89
2022-08-04T06:01:24.162Z,24.90
2022-08-04T06:03:51.772Z,24.95
2022-08-04T06:06:18.921Z,24.97
2022-08-04T06:08:45.865Z,25.07
2022-08-04T06:11:12.808Z,25.13
2022-08-04T06:13:52.715Z,25.15
2022-08-04T06:16:28.729Z,25.17
2022-08-04T06:20:00.492Z,25.11
2022-08-04T06:21:49.431Z,25.07
2022-08-04T06:24:21.233Z,25.01
2022-08-04T06:26:48.547Z,24.97
2022-08-04T06:29:25.116Z,24.97
2022-08-04T06:32:29.912Z,24.98
2022-08-04T06:34:46.561Z,25.00
2022-08-04T06:37:41.013Z,25.05
2022-08-04T06:40:01.224Z,25.04
2022-08-04T06:42:28.581Z,25.04
2022-08-04T06:44:58.655Z,25.06
2022-08-04T06:47:25.650Z,25.09
2022-08-04T06:51:24.665Z,25.13
2022-08-04T06:52:40.433Z,25.16
2022-08-04T06:55:08.973Z,25.17
2022-08-04T06:57:35.960Z,25.20
2022-08-04T07:00:09.291Z,25.21
2022-08-04T07:02:40.095Z,25.22
2022-08-04T07:05:08.139Z,25.23
2022-08-04T07:07:37.178Z,25.23
2022-08-04T07:10:23.976Z,25.25
2022-08-04T07:12:51.130Z,25.28
2022-08-04T07:15:21.051Z,25.41
2022-08-04T07:17:49.703Z,25.39
2022-08-04T07:20:34.891Z,25.37
2022-08-04T07:23:06.861Z,25.40
2022-08-04T07:26:00.279Z,25.39
2022-08-04T07:28:26.092Z,25.39
2022-08-04T07:30:54.373Z,25.35
2022-08-04T07:33:22.098Z,25.40
2022-08-04T07:36:05.175Z,25.41
2022-08-04T07:38:37.586Z,25.59
2022-08-04T07:44:00.173Z,26.03
2022-08-04T07:46:27.625Z,26.21
2022-08-04T07:49:01.310Z,26.36
2022-08-04T07:51:31.788Z,26.51
2022-08-04T07:53:59.013Z,26.71
2022-08-04T07:56:26.988Z,26.89
2022-08-04T07:58:55.463Z,27.01
2022-08-04T08:01:23.714Z,27.08
2022-08-04T08:03:51.707Z,27.11
2022-08-04T08:06:32.746Z,27.21
2022-08-04T08:09:12.213Z,27.33
2022-08-04T08:12:37.063Z,27.36
2022-08-04T08:14:27.161Z,27.42
2022-08-04T08:16:54.168Z,27.49
2022-08-04T08:19:21.119Z,27.44
2022-08-04T08:21:58.843Z,27.44
2022-08-04T08:24:26.898Z,27.55
2022-08-04T08:26:53.877Z,27.68
2022-08-04T08:29:20.788Z,27.87
2022-08-04T08:31:57.194Z,27.76
2022-08-04T08:34:30.050Z,27.73
2022-08-04T08:37:05.705Z,27.76
2022-08-04T08:39:41.415Z,27.82
2022-08-04T08:42:32.270Z,27.95
2022-08-04T08:45:29.733Z,28.19
2022-08-04T08:48:07.947Z,28.46
2022-08-04T08:51:06.546Z,28.65
2022-08-04T08:53:37.233Z,28.92
2022-08-04T08:56:13.445Z,29.08
2022-08-04T08:59:18.798Z,29.15
2022-08-04T09:01:52.390Z,29.37
2022-08-04T09:04:35.640Z,29.35
2022-08-04T09:07:22.129Z,29.44
2022-08-04T09:09:49.918Z,29.56
2022-08-04T09:12:26.298Z,29.69
2022-08-04T09:14:59.080Z,29.89
2022-08-04T09:17:56.134Z,30.15
2022-08-04T09:20:39.438Z,30.18
2022-08-04T09:23:09.178Z,30.16
2022-08-04T09:25:43.274Z,30.27
2022-08-04T09:28:52.884Z,30.48
2022-08-04T09:31:22.985Z,30.76
2022-08-04T09:34:11.020Z,30.87
2022-08-04T09:36:43.387Z,30.90
2022-08-04T09:39:28.840Z,30.92
2022-08-04T09:42:04.487Z,31.17
2022-08-04T09:45:05.612Z,31.51
2022-08-04T09:47:54.842Z,31.75
2022-08-04T09:50:44.810Z,31.67
2022-08-04T09:53:27.032Z,31.49
2022-08-04T09:56:03.789Z,31.47
2022-08-04T09:58:58.817Z,31.74
2022-08-04T10:01:26.476Z,31.77
2022-08-04T10:03:56.949Z,31.94
2022-08-04T10:06:41.058Z,32.12
2022-08-04T10:09:42.205Z,32.23
2022-08-04T10:12:29.738Z,32.55
2022-08-04T10:15:03.093Z,32.73
2022-08-04T10:17:57.425Z,32.74
2022-08-04T10:20:59.105Z,32.74
2022-08-04T10:24:00.586Z,32.81
2022-08-04T10:26:35.884Z,33.00
2022-08-04T10:29:05.704Z,33.16
2022-08-04T10:31:38.995Z,33.15
2022-08-04T10:34:12.082Z,33.15
2022-08-04T10:36:45.434Z,33.13
2022-08-04T10:39:42.118Z,33.01
2022-08-04T10:42:17.326Z,32.78
2022-08-04T10:45:15.843Z,32.62
2022-08-04T10:47:53.447Z,32.57
2022-08-04T10:50:21.675Z,32.81
2022-08-04T10:53:02.481Z,33.07
2022-08-04T10:56:06.633Z,33.49
2022-08-04T10:58:47.782Z,33.97
2022-08-04T11:02:02.009Z,34.26
2022-08-04T11:04:30.828Z,34.54
2022-08-04T11:06:59.039Z,34.76
2022-08-04T11:09:26.052Z,34.90
2022-08-04T11:12:23.821Z,35.06
2022-08-04T11:14:54.579Z,35.32
2022-08-04T11:17:29.147Z,35.81
2022-08-04T11:20:36.789Z,36.25
2022-08-04T11:23:09.766Z,36.51
2022-08-04T11:25:55.865Z,36.69
2022-08-04T11:28:30.646Z,36.91
2022-08-04T11:31:04.292Z,37.01
2022-08-04T11:34:05.257Z,36.90
2022-08-04T11:36:37.109Z,36.69
2022-08-04T11:39:25.000Z,36.58
2022-08-04T11:41:54.046Z,36.65
2022-08-04T11:44:51.711Z,36.76
2022-08-04T11:47:24.869Z,36.86
2022-08-04T11:50:17.920Z,36.76
2022-08-04T11:52:45.110Z,36.96
2022-08-04T11:55:14.304Z,37.16
2022-08-04T11:57:42.317Z,37.23
2022-08-04T12:00:12.717Z,37.35
2022-08-04T12:02:49.730Z,37.30
2022-08-04T12:05:35.589Z,37.26
2022-08-04T12:08:08.130Z,37.43
2022-08-04T12:10:54.445Z,37.29
2022-08-04T12:13:28.967Z,36.89
2022-08-04T12:16:03.903Z,36.58
2022-08-04T12:18:40.415Z,36.31
2022-08-04T12:21:42.703Z,35.95
2022-08-04T12:24:19.260Z,35.86
2022-08-04T12:27:12.665Z,36.01
2022-08-04T12:29:40.781Z,36.32
2022-08-04T12:32:13.027Z,36.60
2022-08-04T12:34:43.263Z,36.78
2022-08-04T12:37:23.940Z,36.85
2022-08-04T12:40:27.486Z,36.69
2022-08-04T12:42:56.443Z,36.37
2022-08-04T12:45:26.732Z,36.11
2022-08-04T12:47:54.873Z,36.03
2022-08-04T12:50:22.474Z,35.94
2022-08-04T12:53:03.449Z,35.90
2022-08-04T12:55:32.113Z,35.77
2022-08-04T12:57:59.686Z,35.50
2022-08-04T13:00:32.125Z,35.21
2022-08-04T13:03:12.787Z,34.83
2022-08-04T13:05:40.952Z,34.56
2022-08-04T13:08:08.459Z,34.29
2022-08-04T13:10:43.387Z,33.98
2022-08-04T13:13:16.837Z,33.71
2022-08-04T13:15:47.336Z,33.57
2022-08-04T13:18:28.943Z,33.29
2022-08-04T13:20:58.218Z,33.14
2022-08-04T13:23:26.938Z,32.86
2022-08-04T13:26:44.666Z,32.39
2022-08-04T13:28:43.687Z,32.14
2022-08-04T13:31:16.767Z,31.96
2022-08-04T13:33:45.968Z,31.75
2022-08-04T13:36:14.601Z,31.32
2022-08-04T13:38:50.494Z,30.69
2022-08-04T13:41:17.820Z,30.00
2022-08-04T13:43:48.472Z,29.30
2022-08-04T13:46:38.339Z,28.56
2022-08-04T13:49:30.977Z,28.15
2022-08-04T13:51:59.076Z,27.86
2022-08-04T13:54:55.613Z,27.67
2022-08-04T13:57:24.319Z,27.65
2022-08-04T13:59:56.813Z,27.76
2022-08-04T14:02:26.894Z,28.00
2022-08-04T14:04:57.348Z,28.25
2022-08-04T14:07:25.802Z,28.47
2022-08-04T14:10:02.655Z,28.70
2022-08-04T14:12:38.563Z,28.98
2022-08-04T14:16:01.373Z,29.48
2022-08-04T14:18:25.535Z,29.85
2022-08-04T14:21:02.481Z,30.13
2022-08-04T14:23:31.848Z,30.44
2022-08-04T14:26:00.634Z,30.64
2022-08-04T14:29:27.844Z,30.79
2022-08-04T14:31:20.618Z,30.95
2022-08-04T14:34:01.432Z,31.08
2022-08-04T14:37:16.250Z,31.14
2022-08-04T14:39:39.402Z,31.13
2022-08-04T14:42:07.409Z,31.19
2022-08-04T14:44:55.049Z,31.34
2022-08-04T14:47:52.717Z,31.34
2022-08-04T14:50:20.596Z,31.39
2022-08-04T14:52:47.827Z,31.48
2022-08-04T14:55:20.525Z,31.62
2022-08-04T14:58:35.053Z,31.74
2022-08-04T15:00:35.895Z,31.76
2022-08-04T15:03:10.965Z,31.84
2022-08-04T15:06:36.589Z,31.91
2022-08-04T15:09:09.619Z,32.00
2022-08-04T15:11:41.489Z,32.07
2022-08-04T15:14:35.949Z,32.10
2022-08-04T15:16:57.463Z,32.16
2022-08-04T15:19:25.315Z,32.25
2022-08-04T15:21:52.288Z,32.29
2022-08-04T15:24:19.236Z,32.31
2022-08-04T15:26:50.691Z,32.35
2022-08-04T15:30:00.291Z,32.29
2022-08-04T15:32:19.642Z,32.23
2022-08-04T15:34:51.269Z,32.17
2022-08-04T15:37:38.496Z,32.10
2022-08-04T15:41:01.976Z,32.09
2022-08-04T15:43:41.106Z,32.03
2022-08-04T15:46:42.725Z,31.86
2022-08-04T15:48:54.890Z,31.73
2022-08-04T15:51:32.233Z,31.67
2022-08-04T15:54:03.713Z,31.65
2022-08-04T15:56:35.990Z,31.63
2022-08-04T15:59:02.940Z,31.57
2022-08-04T16:01:29.829Z,31.48
2022-08-04T16:03:59.852Z,31.36
2022-08-04T16:06:29.525Z,31.25
2022-08-04T16:09:04.580Z,31.16
2022-08-04T16:11:37.326Z,31.11
2022-08-04T16:14:04.905Z,31.06
2022-08-04T16:16:38.710Z,31.00
2022-08-04T16:19:35.385Z,30.96
2022-08-04T16:22:03.330Z,30.85
2022-08-04T16:24:30.892Z,30.77
2022-08-04T16:27:01.802Z,30.69
2022-08-04T16:29:38.257Z,30.58
2022-08-04T16:32:13.263Z,30.49
2022-08-04T16:34:55.548Z,30.40
2022-08-04T16:37:43.103Z,30.31
2022-08-04T16:40:38.570Z,30.15
2022-08-04T16:43:14.683Z,29.99
2022-08-04T16:45:42.475Z,29.84
2022-08-04T16:48:10.653Z,29.70
2022-08-04T16:50:57.852Z,29.58
2022-08-04T16:54:03.742Z,29.46
2022-08-04T16:56:34.435Z,29.36
2022-08-04T16:59:12.565Z,29.26
2022-08-04T17:01:50.557Z,29.18
2022-08-04T17:04:18.955Z,29.09
2022-08-04T17:06:49.652Z,28.99
2022-08-04T17:09:17.903Z,28.89
2022-08-04T17:11:45.740Z,28.81
2022-08-04T17:14:13.407Z,28.71
2022-08-04T17:16:42.621Z,28.59
2022-08-04T17:19:25.094Z,28.50
2022-08-04T17:22:04.292Z,28.40
2022-08-04T17:24:38.241Z,28.35
2022-08-04T17:28:10.501Z,28.28
2022-08-04T17:29:54.394Z,28.19
2022-08-04T17:32:23.057Z,28.09
2022-08-04T17:34:51.679Z,28.07
2022-08-04T17:37:39.314Z,27.98
2022-08-04T17:40:10.354Z,27.87
2022-08-04T17:42:39.868Z,27.81
2022-08-04T17:47:59.562Z,27.57
2022-08-04T17:54:01.472Z,27.44
2022-08-04T17:56:31.782Z,27.36
2022-08-04T17:59:55.737Z,27.29
2022-08-04T18:02:32.583Z,27.21
2022-08-04T18:05:07.581Z,27.13
2022-08-04T18:08:38.676Z,27.02
2022-08-04T18:10:52.328Z,26.94
2022-08-04T18:13:27.404Z,26.92
2022-08-04T18:16:04.972Z,26.89
2022-08-04T18:18:32.208Z,26.84
2022-08-04T18:23:50.729Z,26.64
2022-08-04T18:26:18.623Z,26.56
2022-08-04T18:28:50.993Z,26.49
2022-08-04T18:31:17.937Z,26.41
2022-08-04T18:33:56.955Z,26.34
2022-08-04T18:36:32.796Z,26.25
2022-08-04T18:39:12.720Z,26.17
2022-08-04T18:42:02.978Z,26.12
2022-08-04T18:44:29.517Z,26.05
2022-08-04T18:47:19.467Z,26.01
2022-08-04T18:51:00.347Z,25.95
2022-08-04T18:52:33.461Z,25.90
2022-08-04T18:55:01.842Z,25.85
2022-08-04T18:57:59.430Z,25.82
2022-08-04T19:00:19.791Z,25.77
2022-08-04T19:02:47.686Z,25.71
2022-08-04T19:05:17.503Z,25.63
2022-08-04T19:08:01.665Z,25.55
2022-08-04T19:10:32.490Z,25.51
2022-08-04T19:13:02.305Z,25.41
2022-08-04T19:15:34.564Z,25.31
2022-08-04T19:18:02.570Z,25.28
2022-08-04T19:20:34.221Z,25.28
2022-08-04T19:24:29.421Z,25.24
2022-08-04T19:25:58.834Z,25.14
2022-08-04T19:28:34.095Z,25.13
2022-08-04T19:31:03.595Z,25.14
2022-08-04T19:33:58.991Z,25.07
2022-08-04T19:36:17.615Z,24.93
2022-08-04T19:38:44.821Z,24.80
2022-08-04T19:41:14.381Z,24.77
2022-08-04T19:43:43.787Z,24.74
2022-08-04T19:46:12.058Z,24.71
2022-08-04T19:48:40.908Z,24.75
2022-08-04T19:51:09.504Z,24.74
2022-08-04T19:53:37.549Z,24.63
2022-08-04T19:56:10.192Z,24.59
2022-08-04T19:58:38.747Z,24.55
2022-08-04T20:01:31.528Z,24.52
2022-08-04T20:04:09.218Z,24.49
2022-08-04T20:06:37.582Z,24.44
2022-08-04T20:09:04.635Z,24.40
2022-08-04T20:11:51.456Z,24.44
2022-08-04T20:14:31.336Z,24.46
2022-08-04T20:17:02.043Z,24.48
2022-08-04T20:19:30.335Z,24.43
2022-08-04T20:21:58.489Z,24.35
2022-08-04T20:24:38.265Z,24.34
2022-08-04T20:27:15.066Z,24.33
2022-08-04T20:29:49.643Z,24.30
2022-08-04T20:32:22.461Z,24.28
2022-08-04T20:34:51.411Z,24.27
2022-08-04T20:37:20.603Z,24.25
2022-08-04T20:39:54.473Z,24.24
2022-08-04T20:42:27.363Z,24.25
2022-08-04T20:45:01.344Z,24.24
2022-08-04T20:50:16.510Z,24.19
2022-08-04T20:52:44.584Z,24.16
2022-08-04T20:55:11.633Z,24.09
2022-08-04T20:57:47.956Z,24.03
2022-08-04T21:00:29.976Z,23.98
2022-08-04T21:02:58.998Z,23.96
2022-08-04T21:05:26.577Z,23.94
2022-08-04T21:07:57.191Z,23.91
2022-08-04T21:10:25.778Z,23.89
2022-08-04T21:12:53.747Z,23.89
2022-08-04T21:15:25.083Z,23.88
2022-08-04T21:17:59.382Z,23.88
2022-08-04T21:20:32.437Z,23.90
2022-08-04T21:23:01.932Z,23.85
2022-08-04T21:25:31.406Z,23.82
2022-08-04T21:28:04.041Z,23.81
2022-08-04T21:30:36.979Z,23.79
2022-08-04T21:33:18.982Z,23.77
2022-08-04T21:35:47.295Z,23.80
2022-08-04T21:38:17.636Z,23.78
2022-08-04T21:40:55.703Z,23.78
2022-08-04T21:43:27.251Z,23.77
2022-08-04T21:45:55.078Z,23.75
2022-08-04T21:52:00.579Z,23.69
2022-08-04T21:54:09.327Z,23.66
2022-08-04T21:56:36.377Z,23.63
2022-08-04T21:59:10.977Z,23.61
2022-08-04T22:01:52.366Z,23.59
2022-08-04T22:04:22.314Z,23.60
2022-08-04T22:06:52.452Z,23.60
2022-08-04T22:09:21.834Z,23.59
2022-08-04T22:11:50.851Z,23.57
2022-08-04T22:14:27.655Z,23.55
2022-08-04T22:17:01.951Z,23.53
2022-08-04T22:19:50.286Z,23.49
2022-08-04T22:22:25.124Z,23.40
2022-08-04T22:24:55.171Z,23.35
2022-08-04T22:28:00.878Z,23.30
2022-08-04T22:30:33.232Z,23.25
2022-08-04T22:33:05.028Z,23.20
2022-08-04T22:35:44.371Z,23.15
2022-08-04T22:38:31.683Z,23.12
2022-08-04T22:41:08.802Z,23.10
2022-08-04T22:43:37.628Z,23.08
2022-08-04T22:46:11.949Z,23.06
2022-08-04T22:48:43.510Z,23.04
2022-08-04T22:51:12.887Z,23.03
2022-08-04T22:53:40.307Z,23.02
2022-08-04T22:56:10.493Z,23.01
2022-08-04T22:58:51.097Z,22.98
2022-08-04T23:01:19.442Z,22.93
2022-08-04T23:03:50.936Z,22.90
2022-08-04T23:06:24.704Z,22.87
2022-08-04T23:08:52.120Z,22.86
2022-08-04T23:11:19.036Z,22.85
2022-08-04T23:13:47.229Z,22.84
2022-08-04T23:16:17.812Z,22.83
2022-08-04T23:18:48.193Z,22.81
2022-08-04T23:21:16.543Z,22.79
2022-08-04T23:23:55.201Z,22.75
2022-08-04T23:26:28.878Z,22.71
2022-08-04T23:28:56.515Z,22.68
2022-08-04T23:31:24.314Z,22.65
2022-08-04T23:33:52.512Z,22.62
2022-08-04T23:36:29.340Z,22.59
2022-08-04T23:39:00.674Z,22.56
2022-08-04T23:41:55.323Z,22.56
2022-08-04T23:44:17.472Z,22.54
2022-08-04T23:46:53.335Z,22.53
2022-08-04T23:49:20.969Z,22.51
2022-08-04T23:51:49.651Z,22.49
2022-08-04T23:54:16.927Z,22.47
2022-08-04T23:56:52.781Z,22.45
2022-08-04T23:59:52.234Z,22.43
